Portada
METAR-TAF:

METAR-TAF

Aeropuertos :

Aeropuerto de Sabadell

Sabadell, España

latitud: 41-31N, longitud: 002-06E, altitud: 250 m

Observación

El informe se hizo hace 23 minutos, a las 22:30 UTC
Viento 3 kt del oeste-noroeste
Temperatura 15°C
Humedad 72%
Presión 1017 hPa
Visibilidad 10 km o más

METAR: LELL 162230Z AUTO 29003KT 9999 NCD 15/10 Q1017

Hora: 00:53 (22:53 UTC)

Pronóstico

El informe se hizo hace 8 horas y 53 minutos, a las 14:00 UTC
Pronóstico válido del 16 a las 15 UTC al 17 a las 15 UTC
Viento 7 kt del oeste-suroeste
Visibilidad 10 km o más
Escasas nubes a una altura de 4000 ft
Evolucionando progresivamente
del 16 a las 20 UTC al 16 a las 22 UTC
Viento 5 kt del oeste
Evolucionando progresivamente
del 17 a las 10 UTC al 17 a las 12 UTC
Viento 7 kt del sur-suroeste

TAF: LELL 161400Z 1615/1715 25007KT 9999 FEW040 TX25/1713Z TN11/1706Z BECMG 1620/1622 27005KT BECMG 1710/1712 20007KT

Observaciones y pronósticos meteorológicos de más de 4000 aeropuertos (mensajes METAR y TAF).

Los puntos amarillos y rojos representan las estaciones disponibles.

Ponga el ratón en el punto deseado para ver el nombre de la estación.

Haga clic para ver las observaciones y los pronósticos meteorológicos.

Para cambiar el mapa : haga clic en los botones verdes con una cruz de color negro para hacer un zoom, en el botón verde con un guión para alejar o en las flechas verdes para mapas adyacentes.


METAR-TAF: